createdAt,value
2023-01-25T00:00:06.190Z,15.90
2023-01-25T00:02:34.937Z,15.90
2023-01-25T00:05:03.147Z,16.40
2023-01-25T00:07:31.295Z,15.80
2023-01-25T00:09:59.381Z,15.90
2023-01-25T00:12:27.426Z,16.80
2023-01-25T00:14:55.689Z,16.50
2023-01-25T00:17:26.702Z,15.60
2023-01-25T00:19:54.677Z,16.60
2023-01-25T00:22:22.737Z,15.70
2023-01-25T00:24:53.512Z,16.90
2023-01-25T00:27:21.765Z,16.30
2023-01-25T00:29:49.942Z,15.80
2023-01-25T00:32:21.219Z,16.00
2023-01-25T00:34:50.683Z,15.70
2023-01-25T00:37:29.254Z,15.80
2023-01-25T00:39:58.609Z,16.10
2023-01-25T00:42:26.600Z,15.30
2023-01-25T00:44:54.561Z,16.30
2023-01-25T00:47:23.406Z,15.30
2023-01-25T00:49:51.526Z,15.20
2023-01-25T00:52:19.627Z,15.40
2023-01-25T00:54:49.499Z,16.20
2023-01-25T00:57:17.620Z,15.70
2023-01-25T00:59:47.519Z,15.30
2023-01-25T01:06:46.937Z,15.30
2023-01-25T01:09:16.667Z,16.50
2023-01-25T01:11:44.885Z,16.30
2023-01-25T01:14:13.497Z,15.80
2023-01-25T01:16:41.812Z,16.00
2023-01-25T01:19:11.417Z,15.10
2023-01-25T01:21:39.763Z,16.00
2023-01-25T01:24:09.547Z,15.00
2023-01-25T01:26:38.253Z,15.70
2023-01-25T01:29:06.287Z,15.00
2023-01-25T01:31:36.753Z,15.10
2023-01-25T01:34:19.078Z,15.30
2023-01-25T01:36:47.215Z,16.10
2023-01-25T01:39:15.276Z,16.20
2023-01-25T01:41:43.426Z,15.10
2023-01-25T01:44:19.674Z,15.50
2023-01-25T01:46:53.385Z,15.60
2023-01-25T01:49:22.092Z,15.30
2023-01-25T01:52:07.499Z,15.60
2023-01-25T01:54:46.844Z,14.20
2023-01-25T01:57:23.235Z,14.70
2023-01-25T01:59:57.946Z,15.20
2023-01-25T02:02:26.261Z,15.50
2023-01-25T02:04:57.283Z,14.80
2023-01-25T02:07:35.460Z,14.40
2023-01-25T02:10:05.035Z,15.10
2023-01-25T02:12:33.414Z,15.10
2023-01-25T02:15:01.702Z,15.50
2023-01-25T02:17:32.520Z,14.50
2023-01-25T02:20:09.270Z,15.00
2023-01-25T02:22:40.919Z,14.90
2023-01-25T02:25:10.559Z,14.80
2023-01-25T02:27:42.873Z,14.60
2023-01-25T02:30:11.472Z,15.00
2023-01-25T02:32:41.245Z,15.00
2023-01-25T02:35:20.479Z,15.60
2023-01-25T02:37:50.709Z,15.90
2023-01-25T02:40:18.939Z,16.00
2023-01-25T02:42:48.501Z,15.80
2023-01-25T02:45:17.295Z,15.30
2023-01-25T02:57:08.228Z,14.10
2023-01-25T02:59:43.436Z,14.20
2023-01-25T03:02:13.310Z,14.60
2023-01-25T03:04:44.756Z,14.00
2023-01-25T03:07:16.473Z,14.80
2023-01-25T03:09:48.456Z,14.30
2023-01-25T03:12:18.749Z,14.10
2023-01-25T03:14:49.856Z,14.00
2023-01-25T03:17:20.522Z,14.50
2023-01-25T03:19:48.900Z,14.10
2023-01-25T03:22:17.498Z,15.00
2023-01-25T03:29:35.017Z,13.90
2023-01-25T03:32:04.507Z,12.60
2023-01-25T03:34:35.974Z,12.90
2023-01-25T03:37:04.328Z,12.70
2023-01-25T03:39:33.375Z,13.10
2023-01-25T03:42:04.995Z,13.40
2023-01-25T03:44:35.076Z,12.70
2023-01-25T03:47:03.769Z,12.10
2023-01-25T03:49:32.664Z,12.00
2023-01-25T03:52:02.296Z,20.60
2023-01-25T03:54:36.337Z,13.40
2023-01-25T03:57:06.201Z,11.60
2023-01-25T03:59:40.960Z,10.50
2023-01-25T04:02:09.603Z,9.20
2023-01-25T04:04:40.857Z,9.50
2023-01-25T04:07:10.226Z,9.00
2023-01-25T04:09:40.399Z,8.70
2023-01-25T04:12:09.867Z,8.90
2023-01-25T04:14:44.772Z,9.30
2023-01-25T04:17:19.472Z,8.50
2023-01-25T04:19:59.927Z,8.70
2023-01-25T04:22:33.855Z,8.10
2023-01-25T04:25:02.522Z,9.20
2023-01-25T04:27:31.923Z,9.10
2023-01-25T04:32:37.855Z,8.20
2023-01-25T04:35:12.380Z,8.40
2023-01-25T04:37:42.028Z,8.90
2023-01-25T04:40:10.893Z,8.20
2023-01-25T04:42:44.893Z,7.90
2023-01-25T04:45:13.840Z,7.90
2023-01-25T04:47:42.312Z,8.10
2023-01-25T04:50:11.034Z,8.00
2023-01-25T04:52:39.580Z,8.50
2023-01-25T04:55:09.071Z,8.60
2023-01-25T04:57:41.767Z,8.20
2023-01-25T05:00:11.555Z,8.00
2023-01-25T05:02:42.764Z,8.20
2023-01-25T05:05:15.988Z,7.60
2023-01-25T05:07:48.779Z,8.20
2023-01-25T05:10:19.427Z,8.00
2023-01-25T05:13:12.007Z,7.70
2023-01-25T05:15:44.802Z,7.70
2023-01-25T05:18:17.119Z,8.10
2023-01-25T05:20:49.613Z,8.00
2023-01-25T05:23:22.034Z,8.10
2023-01-25T05:26:12.434Z,8.00
2023-01-25T05:28:45.086Z,7.50
2023-01-25T05:31:23.112Z,8.00
2023-01-25T05:33:54.063Z,8.00
2023-01-25T05:36:27.131Z,8.20
2023-01-25T05:38:58.391Z,7.80
2023-01-25T05:41:33.175Z,8.30
2023-01-25T05:44:30.096Z,7.70
2023-01-25T05:47:03.033Z,7.70
2023-01-25T05:49:34.727Z,8.70
2023-01-25T05:52:07.034Z,8.70
2023-01-25T05:54:38.410Z,8.40
2023-01-25T05:57:09.261Z,8.60
2023-01-25T07:43:09.911Z,10.60
2023-01-25T07:45:37.359Z,9.70
2023-01-25T07:48:09.404Z,9.00
2023-01-25T07:50:36.340Z,8.90
2023-01-25T07:53:04.595Z,8.80
2023-01-25T07:55:31.507Z,9.00
2023-01-25T07:58:02.681Z,9.80
2023-01-25T08:00:38.129Z,10.60
2023-01-25T08:03:07.966Z,8.60
2023-01-25T08:05:38.276Z,11.10
2023-01-25T08:08:05.972Z,8.50
2023-01-25T08:10:32.919Z,9.40
2023-01-25T08:13:00.003Z,8.40
2023-01-25T08:15:26.906Z,8.60
2023-01-25T08:17:57.448Z,8.80
2023-01-25T08:20:26.329Z,8.30
2023-01-25T08:22:53.220Z,7.80
2023-01-25T08:25:24.542Z,8.30
2023-01-25T08:27:54.514Z,8.60
2023-01-25T08:30:21.371Z,8.30
2023-01-25T08:32:48.131Z,8.40
2023-01-25T08:35:14.959Z,9.00
2023-01-25T08:37:41.827Z,8.80
2023-01-25T08:40:09.743Z,8.50
2023-01-25T08:42:42.498Z,13.50
2023-01-25T08:45:09.902Z,9.20
2023-01-25T08:47:37.159Z,8.60
2023-01-25T08:50:07.341Z,9.10
2023-01-25T08:52:34.430Z,9.30
2023-01-25T08:55:01.418Z,8.90
2023-01-25T08:57:28.841Z,8.60
2023-01-25T08:59:55.656Z,9.70
2023-01-25T09:02:22.327Z,9.20
2023-01-25T09:04:49.046Z,9.50
2023-01-25T09:07:15.691Z,8.70
2023-01-25T09:09:42.742Z,8.40
2023-01-25T09:12:09.380Z,8.80
2023-01-25T09:14:38.611Z,10.00
2023-01-25T09:17:05.337Z,9.50
2023-01-25T09:19:32.531Z,8.80
2023-01-25T09:21:59.889Z,9.40
2023-01-25T09:24:27.116Z,9.50
2023-01-25T09:26:59.652Z,9.00
2023-01-25T09:29:26.903Z,10.50
2023-01-25T09:31:53.657Z,12.50
2023-01-25T09:34:33.644Z,9.30
2023-01-25T09:37:01.801Z,8.80
2023-01-25T09:39:28.615Z,8.90
2023-01-25T09:42:21.733Z,8.90
2023-01-25T09:45:10.522Z,9.10
2023-01-25T09:47:40.369Z,8.70
2023-01-25T09:50:32.534Z,10.40
2023-01-25T09:53:21.091Z,9.40
2023-01-25T09:55:53.990Z,13.50
2023-01-25T09:58:24.349Z,10.20
2023-01-25T10:01:09.663Z,10.60
2023-01-25T10:04:13.107Z,9.90
2023-01-25T10:06:55.255Z,10.50
2023-01-25T10:09:49.391Z,10.60
2023-01-25T10:12:23.412Z,9.90
2023-01-25T10:14:50.542Z,12.70
2023-01-25T10:17:41.267Z,11.30
2023-01-25T10:20:29.022Z,11.50
2023-01-25T10:23:27.867Z,11.70
2023-01-25T10:25:57.964Z,11.40
2023-01-25T10:28:58.964Z,10.60
2023-01-25T10:31:37.150Z,11.80
2023-01-25T10:34:17.655Z,11.00
2023-01-25T10:37:11.634Z,11.40
2023-01-25T10:40:04.865Z,11.30
2023-01-25T10:43:06.346Z,10.60
2023-01-25T10:45:35.175Z,10.50
2023-01-25T10:48:06.641Z,10.50
2023-01-25T10:50:43.252Z,10.20
2023-01-25T10:53:24.002Z,10.50
2023-01-25T10:56:26.257Z,10.30
2023-01-25T10:59:06.312Z,10.30
2023-01-25T11:01:35.204Z,9.90
2023-01-25T11:04:02.589Z,10.80
2023-01-25T11:06:39.684Z,10.00
2023-01-25T11:09:22.263Z,10.20
2023-01-25T11:12:03.723Z,10.40
2023-01-25T11:14:31.676Z,12.30
2023-01-25T11:16:59.845Z,11.00
2023-01-25T11:19:38.030Z,10.60
2023-01-25T11:22:19.275Z,10.80
2023-01-25T11:24:46.255Z,10.30
2023-01-25T11:27:19.890Z,10.60
2023-01-25T11:30:14.295Z,10.20
2023-01-25T11:32:48.348Z,26.90
2023-01-25T11:35:23.244Z,21.70
2023-01-25T11:38:15.101Z,12.30
2023-01-25T11:41:13.020Z,10.70
2023-01-25T11:43:58.796Z,10.20
2023-01-25T11:46:39.612Z,10.40
2023-01-25T11:49:20.748Z,9.30
2023-01-25T11:51:54.837Z,10.10
2023-01-25T11:54:24.607Z,10.40
2023-01-25T11:57:16.891Z,10.80
2023-01-25T11:59:54.168Z,10.40
2023-01-25T12:02:48.708Z,10.60
2023-01-25T12:05:27.203Z,10.30
2023-01-25T12:08:02.756Z,10.40
2023-01-25T12:10:48.587Z,10.00
2023-01-25T12:13:47.763Z,9.70
2023-01-25T12:16:36.143Z,10.10
2023-01-25T12:19:17.968Z,10.20
2023-01-25T12:21:47.754Z,10.20
2023-01-25T14:27:53.732Z,9.40
2023-01-25T14:30:27.463Z,9.60
2023-01-25T14:32:58.134Z,18.90
2023-01-25T14:35:53.712Z,12.60
2023-01-25T14:38:26.978Z,10.60
2023-01-25T14:41:01.171Z,10.10
2023-01-25T14:43:30.224Z,9.80
2023-01-25T14:45:58.284Z,9.70
2023-01-25T14:48:42.253Z,8.90
2023-01-25T14:51:24.491Z,9.70
2023-01-25T14:54:05.979Z,9.30
2023-01-25T14:56:35.585Z,9.20
2023-01-25T14:59:04.981Z,9.00
2023-01-25T15:01:39.210Z,9.40
2023-01-25T15:04:12.215Z,9.80
2023-01-25T15:06:48.058Z,8.80
2023-01-25T15:10:02.555Z,9.20
2023-01-25T15:12:33.146Z,8.80
2023-01-25T15:15:02.967Z,9.80
2023-01-25T15:17:40.677Z,10.30
2023-01-25T15:20:38.341Z,10.90
2023-01-25T15:23:17.365Z,11.00
2023-01-25T15:25:54.890Z,10.10
2023-01-25T15:28:24.750Z,10.10
2023-01-25T15:30:53.227Z,10.00
2023-01-25T15:33:27.303Z,12.70
2023-01-25T15:35:56.024Z,11.10
2023-01-25T15:38:25.240Z,10.80
2023-01-25T15:41:00.518Z,11.90
2023-01-25T15:43:29.016Z,12.50
2023-01-25T15:45:57.687Z,10.50
2023-01-25T15:48:41.829Z,9.90
2023-01-25T15:51:15.567Z,13.80
2023-01-25T15:53:47.340Z,12.80
2023-01-25T15:56:22.379Z,11.20
2023-01-25T15:58:52.119Z,10.10
2023-01-25T16:01:21.084Z,9.90
2023-01-25T16:03:49.344Z,10.10
2023-01-25T16:06:35.988Z,9.80
2023-01-25T16:09:15.661Z,9.90
2023-01-25T16:11:44.037Z,10.20
2023-01-25T16:14:15.531Z,9.90
2023-01-25T16:16:49.411Z,9.90
2023-01-25T16:19:19.867Z,9.90
2023-01-25T16:21:51.461Z,10.50
2023-01-25T16:24:19.767Z,9.60
2023-01-25T16:26:55.018Z,10.30
2023-01-25T16:29:24.266Z,10.00
2023-01-25T16:31:53.312Z,10.50
2023-01-25T16:34:22.255Z,11.00
2023-01-25T16:36:53.260Z,12.20
2023-01-25T16:39:25.577Z,13.80
2023-01-25T16:41:54.201Z,14.10
2023-01-25T16:44:22.584Z,12.80
2023-01-25T16:46:51.131Z,12.90
2023-01-25T16:49:21.236Z,13.80
2023-01-25T16:51:50.590Z,13.00
2023-01-25T16:54:20.173Z,12.40
2023-01-25T16:56:48.693Z,11.80
2023-01-25T16:59:17.448Z,12.30
2023-01-25T17:01:45.883Z,11.60
2023-01-25T17:04:15.284Z,12.70
2023-01-25T17:06:45.306Z,12.40
2023-01-25T17:09:24.895Z,11.70
2023-01-25T17:11:55.425Z,12.30
2023-01-25T17:14:23.754Z,11.90
2023-01-25T17:16:53.721Z,11.60
2023-01-25T17:19:22.491Z,12.70
2023-01-25T17:21:50.735Z,11.90
2023-01-25T17:24:21.179Z,11.60
2023-01-25T17:26:49.403Z,12.30
2023-01-25T17:29:17.741Z,12.20
2023-01-25T17:31:45.802Z,11.40
2023-01-25T17:34:16.239Z,12.00
2023-01-25T17:36:44.791Z,12.20
2023-01-25T17:39:16.774Z,12.60
2023-01-25T17:41:45.507Z,12.00
2023-01-25T17:44:14.417Z,12.20
2023-01-25T17:46:42.829Z,12.20
2023-01-25T17:49:14.524Z,12.80
2023-01-25T17:51:42.638Z,12.70
2023-01-25T17:54:11.036Z,12.90
2023-01-25T17:56:39.873Z,12.10
2023-01-25T17:59:11.732Z,12.90
2023-01-25T20:13:16.782Z,18.00
2023-01-25T20:15:46.810Z,18.60
2023-01-25T20:18:13.404Z,18.50
2023-01-25T20:20:40.656Z,17.50
2023-01-25T20:23:07.677Z,16.60
2023-01-25T20:25:34.904Z,17.80
2023-01-25T20:28:01.946Z,17.20
2023-01-25T20:30:30.226Z,17.60
2023-01-25T20:32:57.124Z,16.90
2023-01-25T20:35:23.910Z,17.20
2023-01-25T20:37:50.617Z,17.00
2023-01-25T20:40:17.323Z,18.80
2023-01-25T20:42:44.100Z,16.00
2023-01-25T20:45:16.400Z,16.20
2023-01-25T20:47:43.143Z,16.00
2023-01-25T20:50:11.283Z,16.30
2023-01-25T20:52:38.385Z,16.10
2023-01-25T20:55:06.257Z,16.20
2023-01-25T20:57:33.267Z,17.00
2023-01-25T21:00:00.326Z,17.10
2023-01-25T21:02:27.154Z,16.70
2023-01-25T21:04:54.040Z,16.40
2023-01-25T21:07:20.768Z,16.00
2023-01-25T21:09:50.326Z,15.30
2023-01-25T21:12:18.127Z,16.30
2023-01-25T21:14:44.743Z,15.10
2023-01-25T21:17:11.856Z,15.20
2023-01-25T21:19:38.776Z,15.80
2023-01-25T21:22:05.768Z,17.20
2023-01-25T21:24:32.756Z,18.20
2023-01-25T21:26:59.640Z,17.20
2023-01-25T21:29:26.306Z,17.20
2023-01-25T21:31:54.035Z,18.40
2023-01-25T21:34:21.651Z,17.10
2023-01-25T21:36:48.726Z,16.80
2023-01-25T21:39:15.548Z,16.00
2023-01-25T21:41:42.676Z,15.80
2023-01-25T21:44:28.181Z,17.50
2023-01-25T21:47:23.585Z,17.20
2023-01-25T21:50:02.009Z,16.20
2023-01-25T21:52:29.806Z,15.10
2023-01-25T21:54:56.534Z,15.80
2023-01-25T21:57:23.478Z,16.40
2023-01-25T21:59:54.027Z,16.40
2023-01-25T22:02:31.066Z,16.70
2023-01-25T22:05:07.307Z,17.50
2023-01-25T22:07:35.764Z,19.40
2023-01-25T22:10:03.594Z,19.20
2023-01-25T22:12:30.724Z,17.10
2023-01-25T22:14:57.683Z,17.80
2023-01-25T22:17:25.137Z,17.20
2023-01-25T22:19:52.075Z,16.30
2023-01-25T22:22:19.446Z,17.50
2023-01-25T22:24:48.017Z,17.50
2023-01-25T22:27:32.321Z,18.70
2023-01-25T22:29:59.070Z,18.00
2023-01-25T22:32:26.229Z,17.30
2023-01-25T22:34:54.485Z,17.30
2023-01-25T22:37:22.100Z,16.00
2023-01-25T22:39:50.424Z,16.90
2023-01-25T22:42:17.472Z,17.40
2023-01-25T22:44:44.336Z,17.30
2023-01-25T22:47:12.897Z,16.90
2023-01-25T22:49:40.405Z,17.10
2023-01-25T22:52:08.959Z,19.40
2023-01-25T22:54:45.659Z,21.60
2023-01-25T22:57:13.668Z,24.50
2023-01-25T22:59:43.053Z,34.00
2023-01-25T23:02:11.885Z,24.00
2023-01-25T23:04:41.809Z,21.60
2023-01-25T23:07:18.210Z,34.80
2023-01-25T23:09:47.666Z,29.70
2023-01-25T23:12:14.950Z,33.30
2023-01-25T23:14:52.419Z,35.90
2023-01-25T23:17:39.618Z,86.30
2023-01-25T23:20:09.765Z,78.80
2023-01-25T23:22:38.103Z,52.10
2023-01-25T23:25:39.684Z,32.90
2023-01-25T23:28:20.722Z,20.50
2023-01-25T23:30:51.248Z,20.80
2023-01-25T23:33:22.868Z,19.50
2023-01-25T23:35:50.778Z,18.60
2023-01-25T23:38:18.170Z,27.20
2023-01-25T23:40:45.158Z,20.70
2023-01-25T23:43:14.691Z,20.80
2023-01-25T23:45:42.225Z,19.00
2023-01-25T23:48:09.273Z,18.50
2023-01-25T23:50:36.325Z,19.00
2023-01-25T23:53:06.385Z,18.60
2023-01-25T23:55:38.133Z,17.40
2023-01-25T23:58:14.606Z,17.80
